sensor_id;sensor_type;location;lat;lon;timestamp;pressure;altitude;pressure_sealevel;temperature;humidity
11808;BME280;5961;42.640;23.380;2022-10-28T00:00:23;95282.75;;;14.52;65.43
11808;BME280;5961;42.640;23.380;2022-10-28T00:02:51;95281.75;;;14.36;65.23
11808;BME280;5961;42.640;23.380;2022-10-28T00:05:18;95285.16;;;14.45;65.50
11808;BME280;5961;42.640;23.380;2022-10-28T00:07:44;95282.81;;;14.43;65.54
11808;BME280;5961;42.640;23.380;2022-10-28T00:10:11;95279.03;;;14.44;65.63
11808;BME280;5961;42.640;23.380;2022-10-28T00:12:39;95273.03;;;14.47;65.46
11808;BME280;5961;42.640;23.380;2022-10-28T00:15:06;95270.81;;;14.49;65.25
11808;BME280;5961;42.640;23.380;2022-10-28T00:17:33;95277.47;;;14.43;64.75
11808;BME280;5961;42.640;23.380;2022-10-28T00:20:02;95278.94;;;14.32;64.75
11808;BME280;5961;42.640;23.380;2022-10-28T00:22:29;95270.06;;;14.19;65.21
11808;BME280;5961;42.640;23.380;2022-10-28T00:24:55;95267.53;;;14.23;65.92
11808;BME280;5961;42.640;23.380;2022-10-28T00:27:22;95273.75;;;14.06;66.26
11808;BME280;5961;42.640;23.380;2022-10-28T00:29:49;95271.63;;;13.91;66.59
11808;BME280;5961;42.640;23.380;2022-10-28T00:32:15;95266.22;;;13.70;67.67
11808;BME280;5961;42.640;23.380;2022-10-28T00:34:42;95269.00;;;13.45;68.21
11808;BME280;5961;42.640;23.380;2022-10-28T00:37:10;95272.31;;;13.33;68.81
11808;BME280;5961;42.640;23.380;2022-10-28T00:39:37;95259.94;;;13.29;68.87
11808;BME280;5961;42.640;23.380;2022-10-28T00:42:04;95214.31;;;12.96;69.11
11808;BME280;5961;42.640;23.380;2022-10-28T00:44:46;95271.44;;;13.12;69.98
11808;BME280;5961;42.640;23.380;2022-10-28T00:47:16;95262.97;;;13.10;70.27
11808;BME280;5961;42.640;23.380;2022-10-28T00:49:44;95199.59;;;12.73;70.63
11808;BME280;5961;42.640;23.380;2022-10-28T00:52:16;95217.28;;;12.94;70.41
11808;BME280;5961;42.640;23.380;2022-10-28T00:54:44;95229.69;;;12.99;69.76
11808;BME280;5961;42.640;23.380;2022-10-28T00:57:14;95265.63;;;13.18;70.09
11808;BME280;5961;42.640;23.380;2022-10-28T00:59:44;95264.97;;;13.22;69.62
11808;BME280;5961;42.640;23.380;2022-10-28T01:02:12;95274.09;;;13.20;69.98
11808;BME280;5961;42.640;23.380;2022-10-28T01:04:39;95258.41;;;13.19;69.78
11808;BME280;5961;42.640;23.380;2022-10-28T01:07:08;95264.69;;;13.23;69.89
11808;BME280;5961;42.640;23.380;2022-10-28T01:09:37;95262.78;;;13.15;70.29
11808;BME280;5961;42.640;23.380;2022-10-28T01:12:08;95261.38;;;13.26;70.69
11808;BME280;5961;42.640;23.380;2022-10-28T01:14:50;95268.25;;;13.27;70.46
11808;BME280;5961;42.640;23.380;2022-10-28T01:17:29;95259.03;;;13.16;71.14
11808;BME280;5961;42.640;23.380;2022-10-28T01:20:35;95259.66;;;13.13;71.33
11808;BME280;5961;42.640;23.380;2022-10-28T01:23:09;95266.59;;;13.14;70.77
11808;BME280;5961;42.640;23.380;2022-10-28T01:26:06;95243.97;;;12.94;71.33
11808;BME280;5961;42.640;23.380;2022-10-28T01:32:13;95258.25;;;13.07;71.25
11808;BME280;5961;42.640;23.380;2022-10-28T01:34:47;95265.16;;;12.99;72.33
11808;BME280;5961;42.640;23.380;2022-10-28T01:37:24;95258.88;;;13.04;72.30
11808;BME280;5961;42.640;23.380;2022-10-28T01:39:59;95265.03;;;12.96;71.68
11808;BME280;5961;42.640;23.380;2022-10-28T01:42:33;95263.00;;;12.93;71.55
11808;BME280;5961;42.640;23.380;2022-10-28T01:45:11;95264.22;;;13.04;71.55
11808;BME280;5961;42.640;23.380;2022-10-28T01:47:44;95268.16;;;12.98;72.01
11808;BME280;5961;42.640;23.380;2022-10-28T01:50:17;95267.69;;;12.96;71.55
11808;BME280;5961;42.640;23.380;2022-10-28T01:52:48;95269.84;;;13.02;71.00
11808;BME280;5961;42.640;23.380;2022-10-28T01:55:19;95254.97;;;12.93;70.82
11808;BME280;5961;42.640;23.380;2022-10-28T01:57:49;95272.53;;;12.94;71.31
11808;BME280;5961;42.640;23.380;2022-10-28T02:00:17;95260.81;;;12.78;71.42
11808;BME280;5961;42.640;23.380;2022-10-28T02:02:45;95280.13;;;12.75;71.93
11808;BME280;5961;42.640;23.380;2022-10-28T02:05:34;95277.44;;;12.57;72.59
11808;BME280;5961;42.640;23.380;2022-10-28T02:08:08;95268.81;;;12.43;73.54
11808;BME280;5961;42.640;23.380;2022-10-28T02:10:47;95277.09;;;12.33;74.10
11808;BME280;5961;42.640;23.380;2022-10-28T02:13:18;95216.38;;;11.79;75.27
11808;BME280;5961;42.640;23.380;2022-10-28T02:15:52;95258.41;;;11.99;75.79
11808;BME280;5961;42.640;23.380;2022-10-28T02:18:29;95259.16;;;11.91;75.92
11808;BME280;5961;42.640;23.380;2022-10-28T02:21:00;95262.59;;;11.83;76.44
11808;BME280;5961;42.640;23.380;2022-10-28T02:23:38;95270.09;;;11.72;77.29
11808;BME280;5961;42.640;23.380;2022-10-28T02:26:12;95265.19;;;11.66;77.78
11808;BME280;5961;42.640;23.380;2022-10-28T02:28:47;95268.94;;;11.65;77.95
11808;BME280;5961;42.640;23.380;2022-10-28T02:31:21;95262.53;;;11.66;77.80
11808;BME280;5961;42.640;23.380;2022-10-28T02:33:53;95265.19;;;11.66;78.05
11808;BME280;5961;42.640;23.380;2022-10-28T02:36:22;95266.91;;;11.62;78.02
11808;BME280;5961;42.640;23.380;2022-10-28T02:38:53;95264.38;;;11.56;78.54
11808;BME280;5961;42.640;23.380;2022-10-28T02:41:24;95264.03;;;11.49;78.75
11808;BME280;5961;42.640;23.380;2022-10-28T02:43:54;95270.41;;;11.40;79.71
11808;BME280;5961;42.640;23.380;2022-10-28T02:46:23;95273.22;;;11.35;80.29
11808;BME280;5961;42.640;23.380;2022-10-28T02:48:55;95269.13;;;11.29;80.74
11808;BME280;5961;42.640;23.380;2022-10-28T02:51:28;95272.84;;;11.28;80.87
11808;BME280;5961;42.640;23.380;2022-10-28T02:54:00;95276.31;;;11.28;80.86
11808;BME280;5961;42.640;23.380;2022-10-28T02:56:34;95268.78;;;11.30;81.05
11808;BME280;5961;42.640;23.380;2022-10-28T02:59:02;95267.81;;;11.18;81.82
11808;BME280;5961;42.640;23.380;2022-10-28T03:01:29;95274.50;;;11.15;81.73
11808;BME280;5961;42.640;23.380;2022-10-28T03:03:57;95270.28;;;11.14;82.31
11808;BME280;5961;42.640;23.380;2022-10-28T03:06:24;95274.50;;;11.15;82.32
11808;BME280;5961;42.640;23.380;2022-10-28T03:08:50;95272.81;;;11.19;81.54
11808;BME280;5961;42.640;23.380;2022-10-28T03:11:18;95276.56;;;11.18;81.76
11808;BME280;5961;42.640;23.380;2022-10-28T03:13:44;95267.31;;;11.16;81.67
11808;BME280;5961;42.640;23.380;2022-10-28T03:16:11;95262.19;;;10.97;82.51
11808;BME280;5961;42.640;23.380;2022-10-28T03:18:38;95259.66;;;10.92;82.94
11808;BME280;5961;42.640;23.380;2022-10-28T03:21:06;95266.31;;;11.03;82.75
11808;BME280;5961;42.640;23.380;2022-10-28T03:23:33;95260.31;;;10.97;82.95
11808;BME280;5961;42.640;23.380;2022-10-28T03:25:59;95264.56;;;10.98;82.82
11808;BME280;5961;42.640;23.380;2022-10-28T03:28:26;95275.72;;;11.09;82.66
11808;BME280;5961;42.640;23.380;2022-10-28T03:30:53;95264.00;;;11.10;81.87
11808;BME280;5961;42.640;23.380;2022-10-28T03:33:19;95276.28;;;11.20;81.30
11808;BME280;5961;42.640;23.380;2022-10-28T03:35:46;95268.44;;;11.15;81.53
11808;BME280;5961;42.640;23.380;2022-10-28T03:38:14;95275.47;;;11.19;81.17
11808;BME280;5961;42.640;23.380;2022-10-28T03:40:41;95275.13;;;11.12;81.39
11808;BME280;5961;42.640;23.380;2022-10-28T03:43:07;95281.22;;;11.13;81.46
11808;BME280;5961;42.640;23.380;2022-10-28T03:45:34;95274.00;;;11.05;81.59
11808;BME280;5961;42.640;23.380;2022-10-28T03:48:01;95281.09;;;10.87;82.10
11808;BME280;5961;42.640;23.380;2022-10-28T03:50:27;95270.31;;;10.92;82.36
11808;BME280;5961;42.640;23.380;2022-10-28T03:52:54;95285.84;;;10.98;82.42
11808;BME280;5961;42.640;23.380;2022-10-28T03:55:22;95270.72;;;10.85;83.03
11808;BME280;5961;42.640;23.380;2022-10-28T03:57:50;95277.09;;;10.76;83.09
11808;BME280;5961;42.640;23.380;2022-10-28T04:00:17;95276.53;;;10.65;84.42
11808;BME280;5961;42.640;23.380;2022-10-28T04:02:48;95266.22;;;10.41;85.46
11808;BME280;5961;42.640;23.380;2022-10-28T04:05:15;95279.59;;;10.36;86.29
11808;BME280;5961;42.640;23.380;2022-10-28T04:07:41;95278.16;;;10.30;86.38
11808;BME280;5961;42.640;23.380;2022-10-28T04:10:09;95274.22;;;10.28;86.56
11808;BME280;5961;42.640;23.380;2022-10-28T04:12:37;95282.50;;;10.26;87.27
11808;BME280;5961;42.640;23.380;2022-10-28T04:15:04;95290.59;;;10.21;87.51
11808;BME280;5961;42.640;23.380;2022-10-28T04:17:32;95289.00;;;10.20;87.90
11808;BME280;5961;42.640;23.380;2022-10-28T04:19:59;95282.09;;;10.19;87.73
11808;BME280;5961;42.640;23.380;2022-10-28T04:22:26;95272.25;;;10.20;87.70
11808;BME280;5961;42.640;23.380;2022-10-28T04:24:52;95289.47;;;10.22;87.71
11808;BME280;5961;42.640;23.380;2022-10-28T04:27:19;95280.56;;;10.18;87.57
11808;BME280;5961;42.640;23.380;2022-10-28T04:29:48;95288.22;;;10.20;87.91
11808;BME280;5961;42.640;23.380;2022-10-28T04:32:14;95282.47;;;10.13;87.95
11808;BME280;5961;42.640;23.380;2022-10-28T04:34:41;95277.09;;;10.04;88.04
11808;BME280;5961;42.640;23.380;2022-10-28T04:37:08;95282.00;;;10.11;88.16
11808;BME280;5961;42.640;23.380;2022-10-28T04:39:40;95283.88;;;10.10;88.02
11808;BME280;5961;42.640;23.380;2022-10-28T04:42:07;95263.31;;;10.02;87.56
11808;BME280;5961;42.640;23.380;2022-10-28T04:44:34;95289.50;;;10.09;88.07
11808;BME280;5961;42.640;23.380;2022-10-28T04:47:02;95277.75;;;10.10;87.26
11808;BME280;5961;42.640;23.380;2022-10-28T04:49:28;95289.28;;;10.05;87.24
11808;BME280;5961;42.640;23.380;2022-10-28T04:51:55;95285.56;;;10.06;87.09
11808;BME280;5961;42.640;23.380;2022-10-28T04:54:22;95276.22;;;9.95;86.84
11808;BME280;5961;42.640;23.380;2022-10-28T04:56:48;95286.75;;;10.00;87.46
11808;BME280;5961;42.640;23.380;2022-10-28T04:59:15;95283.78;;;10.02;86.71
11808;BME280;5961;42.640;23.380;2022-10-28T05:01:42;95283.31;;;10.00;86.84
11808;BME280;5961;42.640;23.380;2022-10-28T05:04:10;95279.47;;;9.92;86.85
11808;BME280;5961;42.640;23.380;2022-10-28T05:06:36;95288.91;;;9.98;86.79
11808;BME280;5961;42.640;23.380;2022-10-28T05:09:03;95293.53;;;10.06;87.02
11808;BME280;5961;42.640;23.380;2022-10-28T05:11:30;95290.88;;;10.06;86.58
11808;BME280;5961;42.640;23.380;2022-10-28T05:13:57;95293.03;;;10.18;85.93
11808;BME280;5961;42.640;23.380;2022-10-28T05:16:23;95291.06;;;10.23;85.77
11808;BME280;5961;42.640;23.380;2022-10-28T05:18:50;95299.81;;;10.24;85.47
11808;BME280;5961;42.640;23.380;2022-10-28T05:21:18;95287.50;;;10.28;85.65
11808;BME280;5961;42.640;23.380;2022-10-28T05:23:45;95297.84;;;10.29;85.68
11808;BME280;5961;42.640;23.380;2022-10-28T05:26:12;95300.50;;;10.29;86.13
11808;BME280;5961;42.640;23.380;2022-10-28T05:28:39;95297.72;;;10.34;85.66
11808;BME280;5961;42.640;23.380;2022-10-28T05:31:06;95302.63;;;10.41;85.28
11808;BME280;5961;42.640;23.380;2022-10-28T05:33:32;95302.44;;;10.37;85.05
11808;BME280;5961;42.640;23.380;2022-10-28T05:35:59;95314.22;;;10.45;84.98
11808;BME280;5961;42.640;23.380;2022-10-28T05:38:27;95308.59;;;10.46;84.91
11808;BME280;5961;42.640;23.380;2022-10-28T05:40:54;95311.25;;;10.46;84.46
11808;BME280;5961;42.640;23.380;2022-10-28T05:43:21;95308.72;;;10.41;85.20
11808;BME280;5961;42.640;23.380;2022-10-28T05:45:51;95319.34;;;10.41;85.12
11808;BME280;5961;42.640;23.380;2022-10-28T05:48:18;95316.31;;;10.34;85.57
11808;BME280;5961;42.640;23.380;2022-10-28T05:50:44;95315.34;;;10.30;85.92
11808;BME280;5961;42.640;23.380;2022-10-28T05:53:11;95326.28;;;10.29;86.31
11808;BME280;5961;42.640;23.380;2022-10-28T05:55:39;95319.28;;;10.33;86.44
11808;BME280;5961;42.640;23.380;2022-10-28T05:58:06;95324.47;;;10.38;86.17
11808;BME280;5961;42.640;23.380;2022-10-28T06:00:34;95326.66;;;10.36;86.45
11808;BME280;5961;42.640;23.380;2022-10-28T06:03:02;95329.19;;;10.41;86.38
11808;BME280;5961;42.640;23.380;2022-10-28T06:05:31;95326.72;;;10.44;86.47
11808;BME280;5961;42.640;23.380;2022-10-28T06:07:58;95336.38;;;10.54;86.27
11808;BME280;5961;42.640;23.380;2022-10-28T06:10:24;95331.72;;;10.60;85.52
11808;BME280;5961;42.640;23.380;2022-10-28T06:12:54;95333.25;;;10.61;85.91
11808;BME280;5961;42.640;23.380;2022-10-28T06:15:21;95334.44;;;10.68;85.81
11808;BME280;5961;42.640;23.380;2022-10-28T06:17:48;95343.88;;;10.74;85.52
11808;BME280;5961;42.640;23.380;2022-10-28T06:20:15;95348.97;;;10.84;85.55
11808;BME280;5961;42.640;23.380;2022-10-28T06:22:46;95340.06;;;10.89;85.09
11808;BME280;5961;42.640;23.380;2022-10-28T06:25:13;95350.06;;;11.06;84.92
11808;BME280;5961;42.640;23.380;2022-10-28T06:27:40;95358.56;;;11.16;84.54
11808;BME280;5961;42.640;23.380;2022-10-28T06:30:09;95356.75;;;11.25;84.69
11808;BME280;5961;42.640;23.380;2022-10-28T06:32:36;95367.03;;;11.40;84.00
11808;BME280;5961;42.640;23.380;2022-10-28T06:35:03;95362.41;;;11.54;83.71
11808;BME280;5961;42.640;23.380;2022-10-28T06:37:30;95355.13;;;11.69;83.23
11808;BME280;5961;42.640;23.380;2022-10-28T06:39:57;95362.25;;;11.82;82.58
11808;BME280;5961;42.640;23.380;2022-10-28T06:42:24;95347.06;;;11.82;81.36
11808;BME280;5961;42.640;23.380;2022-10-28T06:44:51;95362.34;;;11.99;80.70
11808;BME280;5961;42.640;23.380;2022-10-28T06:47:20;95360.34;;;12.13;80.91
11808;BME280;5961;42.640;23.380;2022-10-28T06:49:47;95364.28;;;12.24;80.70
11808;BME280;5961;42.640;23.380;2022-10-28T06:52:14;95363.38;;;12.37;79.80
11808;BME280;5961;42.640;23.380;2022-10-28T06:54:40;95357.75;;;12.47;79.15
11808;BME280;5961;42.640;23.380;2022-10-28T06:57:08;95364.97;;;12.55;78.69
11808;BME280;5961;42.640;23.380;2022-10-28T06:59:36;95325.25;;;12.45;78.50
11808;BME280;5961;42.640;23.380;2022-10-28T07:02:03;95350.56;;;12.74;77.85
11808;BME280;5961;42.640;23.380;2022-10-28T07:04:32;95359.69;;;12.90;77.17
11808;BME280;5961;42.640;23.380;2022-10-28T07:06:58;95350.56;;;12.91;77.19
11808;BME280;5961;42.640;23.380;2022-10-28T07:09:25;95362.97;;;13.04;76.16
11808;BME280;5961;42.640;23.380;2022-10-28T07:11:52;95361.09;;;13.13;76.08
11808;BME280;5961;42.640;23.380;2022-10-28T07:14:19;95369.44;;;13.20;75.79
11808;BME280;5961;42.640;23.380;2022-10-28T07:16:45;95361.41;;;13.29;75.24
11808;BME280;5961;42.640;23.380;2022-10-28T07:19:12;95363.72;;;13.39;74.82
11808;BME280;5961;42.640;23.380;2022-10-28T07:21:40;95367.66;;;13.50;74.08
11808;BME280;5961;42.640;23.380;2022-10-28T07:24:07;95363.22;;;13.54;73.58
11808;BME280;5961;42.640;23.380;2022-10-28T07:26:34;95367.03;;;13.53;73.48
11808;BME280;5961;42.640;23.380;2022-10-28T07:29:00;95367.16;;;13.65;72.70
11808;BME280;5961;42.640;23.380;2022-10-28T07:31:27;95363.03;;;13.67;73.46
11808;BME280;5961;42.640;23.380;2022-10-28T07:33:55;95361.78;;;13.73;73.09
11808;BME280;5961;42.640;23.380;2022-10-28T07:36:22;95358.00;;;13.74;73.26
11808;BME280;5961;42.640;23.380;2022-10-28T07:38:51;95365.34;;;13.86;72.61
11808;BME280;5961;42.640;23.380;2022-10-28T07:41:19;95370.66;;;13.95;72.27
11808;BME280;5961;42.640;23.380;2022-10-28T07:43:46;95377.84;;;14.03;71.62
11808;BME280;5961;42.640;23.380;2022-10-28T07:46:13;95372.34;;;14.08;71.36
11808;BME280;5961;42.640;23.380;2022-10-28T07:48:40;95367.13;;;14.11;70.77
11808;BME280;5961;42.640;23.380;2022-10-28T07:51:09;95372.44;;;14.20;70.85
11808;BME280;5961;42.640;23.380;2022-10-28T07:53:38;95369.59;;;14.25;70.37
11808;BME280;5961;42.640;23.380;2022-10-28T07:56:07;95365.63;;;14.31;70.66
11808;BME280;5961;42.640;23.380;2022-10-28T07:58:37;95360.59;;;14.38;70.05
11808;BME280;5961;42.640;23.380;2022-10-28T08:01:05;95360.69;;;14.42;69.95
11808;BME280;5961;42.640;23.380;2022-10-28T08:03:33;95363.06;;;14.43;69.67
11808;BME280;5961;42.640;23.380;2022-10-28T08:05:59;95362.22;;;14.51;69.44
11808;BME280;5961;42.640;23.380;2022-10-28T08:08:27;95366.63;;;14.56;69.22
11808;BME280;5961;42.640;23.380;2022-10-28T08:10:53;95371.47;;;14.62;69.18
11808;BME280;5961;42.640;23.380;2022-10-28T08:13:22;95369.22;;;14.64;69.23
11808;BME280;5961;42.640;23.380;2022-10-28T08:15:52;95359.75;;;14.67;69.00
11808;BME280;5961;42.640;23.380;2022-10-28T08:18:19;95372.28;;;14.75;69.00
11808;BME280;5961;42.640;23.380;2022-10-28T08:20:45;95377.13;;;14.81;68.55
11808;BME280;5961;42.640;23.380;2022-10-28T08:23:12;95365.78;;;14.84;68.41
11808;BME280;5961;42.640;23.380;2022-10-28T08:25:46;95363.09;;;14.84;68.05
11808;BME280;5961;42.640;23.380;2022-10-28T08:28:13;95366.69;;;14.89;67.70
11808;BME280;5961;42.640;23.380;2022-10-28T08:30:41;95371.53;;;14.95;67.56
11808;BME280;5961;42.640;23.380;2022-10-28T08:33:08;95371.00;;;15.02;67.53
11808;BME280;5961;42.640;23.380;2022-10-28T08:35:34;95370.03;;;15.06;67.43
11808;BME280;5961;42.640;23.380;2022-10-28T08:38:01;95376.31;;;15.10;67.25
11808;BME280;5961;42.640;23.380;2022-10-28T08:40:31;95379.09;;;15.14;67.21
11808;BME280;5961;42.640;23.380;2022-10-28T08:43:09;95374.34;;;15.19;67.11
11808;BME280;5961;42.640;23.380;2022-10-28T08:45:47;95370.22;;;15.22;66.50
11808;BME280;5961;42.640;23.380;2022-10-28T08:48:24;95361.81;;;15.23;66.49
11808;BME280;5961;42.640;23.380;2022-10-28T08:51:01;95363.19;;;15.29;66.49
11808;BME280;5961;42.640;23.380;2022-10-28T08:53:34;95356.16;;;15.25;66.41
11808;BME280;5961;42.640;23.380;2022-10-28T08:56:06;95330.66;;;15.07;66.07
11808;BME280;5961;42.640;23.380;2022-10-28T08:58:40;95320.81;;;14.99;66.56
11808;BME280;5961;42.640;23.380;2022-10-28T09:01:15;95362.44;;;15.29;66.61
11808;BME280;5961;42.640;23.380;2022-10-28T09:03:47;95359.53;;;15.34;66.33
11808;BME280;5961;42.640;23.380;2022-10-28T09:06:17;95363.00;;;15.34;66.41
11808;BME280;5961;42.640;23.380;2022-10-28T09:08:46;95353.53;;;15.37;66.07
11808;BME280;5961;42.640;23.380;2022-10-28T09:11:36;95352.22;;;15.43;66.23
11808;BME280;5961;42.640;23.380;2022-10-28T09:14:17;95356.28;;;15.49;65.95
11808;BME280;5961;42.640;23.380;2022-10-28T09:16:58;95344.22;;;15.55;65.87
11808;BME280;5961;42.640;23.380;2022-10-28T09:19:38;95339.56;;;15.64;65.81
11808;BME280;5961;42.640;23.380;2022-10-28T09:22:23;95334.66;;;15.66;65.98
11808;BME280;5961;42.640;23.380;2022-10-28T09:24:54;95338.94;;;15.79;65.59
11808;BME280;5961;42.640;23.380;2022-10-28T09:27:45;95342.16;;;15.85;65.12
11808;BME280;5961;42.640;23.380;2022-10-28T09:30:35;95330.91;;;15.91;65.31
11808;BME280;5961;42.640;23.380;2022-10-28T09:33:20;95328.78;;;15.97;65.25
11808;BME280;5961;42.640;23.380;2022-10-28T09:35:52;95325.88;;;16.02;64.95
11808;BME280;5961;42.640;23.380;2022-10-28T09:38:25;95311.47;;;16.07;64.61
11808;BME280;5961;42.640;23.380;2022-10-28T09:40:57;95309.56;;;16.07;64.57
11808;BME280;5961;42.640;23.380;2022-10-28T09:43:29;95300.19;;;16.13;64.00
11808;BME280;5961;42.640;23.380;2022-10-28T09:46:02;95310.56;;;16.27;63.70
11808;BME280;5961;42.640;23.380;2022-10-28T09:48:33;95307.63;;;16.32;63.10
11808;BME280;5961;42.640;23.380;2022-10-28T09:51:02;95302.50;;;16.39;62.79
11808;BME280;5961;42.640;23.380;2022-10-28T09:53:38;95298.47;;;16.45;62.82
11808;BME280;5961;42.640;23.380;2022-10-28T09:56:06;95290.84;;;16.47;62.31
11808;BME280;5961;42.640;23.380;2022-10-28T09:58:34;95293.78;;;16.54;62.61
11808;BME280;5961;42.640;23.380;2022-10-28T10:01:02;95287.84;;;16.61;62.16
11808;BME280;5961;42.640;23.380;2022-10-28T10:03:30;95269.38;;;16.59;62.27
11808;BME280;5961;42.640;23.380;2022-10-28T10:06:09;95286.00;;;16.77;62.09
11808;BME280;5961;42.640;23.380;2022-10-28T10:08:38;95272.28;;;16.66;61.96
11808;BME280;5961;42.640;23.380;2022-10-28T10:11:12;95273.13;;;16.82;61.52
11808;BME280;5961;42.640;23.380;2022-10-28T10:13:41;95276.63;;;16.98;61.22
11808;BME280;5961;42.640;23.380;2022-10-28T10:16:13;95273.72;;;17.04;60.14
11808;BME280;5961;42.640;23.380;2022-10-28T10:18:46;95276.50;;;17.07;60.13
11808;BME280;5961;42.640;23.380;2022-10-28T10:21:17;95273.75;;;17.19;59.14
11808;BME280;5961;42.640;23.380;2022-10-28T10:23:45;95270.56;;;17.29;58.93
11808;BME280;5961;42.640;23.380;2022-10-28T10:26:13;95271.97;;;17.39;58.76
11808;BME280;5961;42.640;23.380;2022-10-28T10:28:43;95273.38;;;17.48;57.77
11808;BME280;5961;42.640;23.380;2022-10-28T10:31:17;95268.38;;;17.63;57.62
11808;BME280;5961;42.640;23.380;2022-10-28T10:33:47;95267.94;;;17.76;57.19
11808;BME280;5961;42.640;23.380;2022-10-28T10:36:18;95252.66;;;17.80;56.50
11808;BME280;5961;42.640;23.380;2022-10-28T10:38:50;95255.44;;;17.99;55.27
11808;BME280;5961;42.640;23.380;2022-10-28T10:41:32;95262.28;;;18.13;54.46
11808;BME280;5961;42.640;23.380;2022-10-28T10:43:59;95253.66;;;18.23;53.84
11808;BME280;5961;42.640;23.380;2022-10-28T10:46:26;95250.06;;;18.34;53.23
11808;BME280;5961;42.640;23.380;2022-10-28T10:49:05;95248.81;;;18.47;52.41
11808;BME280;5961;42.640;23.380;2022-10-28T10:51:34;95228.78;;;18.45;51.73
11808;BME280;5961;42.640;23.380;2022-10-28T10:54:01;95243.69;;;18.77;51.41
11808;BME280;5961;42.640;23.380;2022-10-28T10:56:29;95230.88;;;18.90;51.04
11808;BME280;5961;42.640;23.380;2022-10-28T10:58:59;95225.19;;;18.95;50.71
11808;BME280;5961;42.640;23.380;2022-10-28T11:01:34;95241.81;;;19.19;50.72
11808;BME280;5961;42.640;23.380;2022-10-28T11:04:03;95233.50;;;19.28;49.87
11808;BME280;5961;42.640;23.380;2022-10-28T11:06:35;95237.28;;;19.43;49.80
11808;BME280;5961;42.640;23.380;2022-10-28T11:09:05;95227.16;;;19.59;49.53
11808;BME280;5961;42.640;23.380;2022-10-28T11:11:34;95232.66;;;19.66;49.28
11808;BME280;5961;42.640;23.380;2022-10-28T11:14:04;95216.53;;;19.69;49.12
11808;BME280;5961;42.640;23.380;2022-10-28T11:16:32;95209.66;;;19.72;48.39
11808;BME280;5961;42.640;23.380;2022-10-28T11:19:14;95206.16;;;19.94;47.29
11808;BME280;5961;42.640;23.380;2022-10-28T11:21:52;95217.16;;;20.08;47.64
11808;BME280;5961;42.640;23.380;2022-10-28T11:27:35;95223.72;;;20.34;47.59
11808;BME280;5961;42.640;23.380;2022-10-28T11:30:11;95218.84;;;20.46;46.25
11808;BME280;5961;42.640;23.380;2022-10-28T11:32:48;95212.47;;;20.58;45.99
11808;BME280;5961;42.640;23.380;2022-10-28T11:35:37;95209.50;;;20.70;45.06
11808;BME280;5961;42.640;23.380;2022-10-28T11:43:49;95202.28;;;21.11;43.50
11808;BME280;5961;42.640;23.380;2022-10-28T11:46:26;95177.97;;;21.11;42.40
11808;BME280;5961;42.640;23.380;2022-10-28T11:51:53;95184.81;;;21.42;41.99
11808;BME280;5961;42.640;23.380;2022-10-28T11:54:32;95204.34;;;21.65;41.88
11808;BME280;5961;42.640;23.380;2022-10-28T11:57:08;95192.88;;;21.78;41.48
11808;BME280;5961;42.640;23.380;2022-10-28T11:59:57;95197.28;;;21.97;40.49
11808;BME280;5961;42.640;23.380;2022-10-28T12:02:40;95193.13;;;22.14;39.63
11808;BME280;5961;42.640;23.380;2022-10-28T12:05:16;95184.72;;;22.26;39.32
11808;BME280;5961;42.640;23.380;2022-10-28T12:07:56;95192.59;;;22.56;38.71
11808;BME280;5961;42.640;23.380;2022-10-28T12:10:38;95188.09;;;22.81;38.67
11808;BME280;5961;42.640;23.380;2022-10-28T12:13:14;95192.06;;;23.08;38.03
11808;BME280;5961;42.640;23.380;2022-10-28T12:15:49;95183.63;;;23.41;36.89
11808;BME280;5961;42.640;23.380;2022-10-28T12:18:21;95185.56;;;23.59;35.38
11808;BME280;5961;42.640;23.380;2022-10-28T12:20:56;95184.03;;;23.79;34.57
11808;BME280;5961;42.640;23.380;2022-10-28T12:23:25;95178.19;;;23.94;33.75
11808;BME280;5961;42.640;23.380;2022-10-28T12:25:55;95183.63;;;24.23;33.10
11808;BME280;5961;42.640;23.380;2022-10-28T12:28:26;95179.66;;;24.48;31.95
11808;BME280;5961;42.640;23.380;2022-10-28T12:30:54;95179.59;;;24.73;30.70
11808;BME280;5961;42.640;23.380;2022-10-28T12:33:24;95181.81;;;25.03;29.67
11808;BME280;5961;42.640;23.380;2022-10-28T12:36:09;95163.88;;;25.16;28.44
11808;BME280;5961;42.640;23.380;2022-10-28T12:38:42;95175.25;;;25.62;27.88
11808;BME280;5961;42.640;23.380;2022-10-28T12:41:14;95179.72;;;25.87;27.76
11808;BME280;5961;42.640;23.380;2022-10-28T12:43:44;95163.53;;;26.13;27.17
11808;BME280;5961;42.640;23.380;2022-10-28T12:46:17;95173.38;;;26.41;26.94
11808;BME280;5961;42.640;23.380;2022-10-28T12:48:53;95135.91;;;26.49;26.71
11808;BME280;5961;42.640;23.380;2022-10-28T12:51:26;95168.84;;;26.99;26.59
11808;BME280;5961;42.640;23.380;2022-10-28T12:53:57;95180.72;;;27.15;25.79
11808;BME280;5961;42.640;23.380;2022-10-28T12:56:35;95163.22;;;27.40;25.63
11808;BME280;5961;42.640;23.380;2022-10-28T12:59:05;95162.16;;;27.60;25.54
11808;BME280;5961;42.640;23.380;2022-10-28T13:01:35;95169.66;;;27.79;25.00
11808;BME280;5961;42.640;23.380;2022-10-28T13:04:03;95157.53;;;28.04;24.77
11808;BME280;5961;42.640;23.380;2022-10-28T13:06:56;95156.13;;;28.19;24.28
11808;BME280;5961;42.640;23.380;2022-10-28T13:09:49;95156.81;;;28.23;24.29
11808;BME280;5961;42.640;23.380;2022-10-28T13:12:49;95152.78;;;28.08;24.60
11808;BME280;5961;42.640;23.380;2022-10-28T13:15:51;95156.72;;;28.07;24.60
11808;BME280;5961;42.640;23.380;2022-10-28T13:21:17;95131.16;;;27.94;24.38
11808;BME280;5961;42.640;23.380;2022-10-28T13:23:50;95156.59;;;28.14;24.38
11808;BME280;5961;42.640;23.380;2022-10-28T13:26:21;95155.19;;;28.02;24.37
11808;BME280;5961;42.640;23.380;2022-10-28T13:28:54;95150.63;;;27.96;24.52
11808;BME280;5961;42.640;23.380;2022-10-28T13:31:22;95158.47;;;27.94;24.78
11808;BME280;5961;42.640;23.380;2022-10-28T13:33:57;95158.06;;;27.95;24.45
11808;BME280;5961;42.640;23.380;2022-10-28T13:36:26;95148.03;;;27.89;24.49